Time;durP1;ratioP1;P1;durP2;ratioP2;P2;SDS_P1;SDS_P2;PMS_P1;PMS_P2;Temp;Humidity;BMP_temperature;BMP_pressure;BME280_temperature;BME280_humidity;BME280_pressure;Samples;Min_cycle;Max_cycle;Signal;HPM_P1;HPM_P2
2024/02/27 00:00:16;;;;;;;;;148.00;129.00;;;;;6.97;100.00;99081.88;6269880;20;1955595;-46
2024/02/27 00:02:44;;;;;;;;;151.00;128.50;;;;;7.24;100.00;99082.13;6266235;20;1958706;-47
2024/02/27 00:05:14;;;;;;;;;140.00;128.00;;;;;7.22;100.00;99078.69;6274236;20;3727422;-53
2024/02/27 00:07:43;;;;;;;;;142.00;121.33;;;;;7.13;100.00;99078.34;6276210;20;3727352;-55
2024/02/27 00:10:14;;;;;;;;;131.00;112.00;;;;;7.09;100.00;99083.00;6268747;20;1944129;-54
2024/02/27 00:12:42;;;;;;;;;134.50;116.00;;;;;7.04;100.00;99079.72;6271642;20;1961891;-55
2024/02/27 00:15:10;;;;;;;;;126.00;112.00;;;;;7.28;100.00;99082.81;6269008;20;1952460;-54
2024/02/27 00:17:40;;;;;;;;;94.67;94.00;;;;;7.40;100.00;99094.59;6274902;20;3652324;-53
2024/02/27 00:20:10;;;;;;;;;119.50;107.75;;;;;7.53;100.00;99087.59;6309851;20;4449188;-53
2024/02/27 00:22:38;;;;;;;;;116.50;102.00;;;;;6.91;100.00;99084.03;6302752;20;1947361;-54
2024/02/27 00:25:10;;;;;;;;;120.00;109.00;;;;;6.65;100.00;99074.81;6273105;20;4465951;-52
2024/02/27 00:27:38;;;;;;;;;105.00;98.00;;;;;6.58;100.00;99071.63;6271236;20;1948398;-54
2024/02/27 00:30:09;;;;;;;;;112.75;98.75;;;;;6.52;100.00;99077.31;6273891;20;3706668;-51
2024/02/27 00:32:38;;;;;;;;;73.00;52.00;;;;;6.66;100.00;99071.19;6271795;20;3597138;-54
2024/02/27 00:35:09;;;;;;;;;108.00;97.50;;;;;6.45;100.00;99070.56;6273800;20;3702437;-54
2024/02/27 00:37:39;;;;;;;;;112.00;97.00;;;;;6.42;100.00;99070.75;6273424;20;3693012;-54
2024/02/27 00:40:10;;;;;;;;;112.00;97.33;;;;;6.75;100.00;99079.56;6274034;20;3692960;-52
2024/02/27 00:42:41;;;;;;;;;116.00;102.25;;;;;6.80;100.00;99072.16;6274008;20;3702501;-53
2024/02/27 00:45:11;;;;;;;;;109.67;91.33;;;;;6.18;100.00;99073.78;6270469;20;3702545;-53
2024/02/27 00:47:39;;;;;;;;;128.75;106.75;;;;;6.77;100.00;99071.50;6251065;20;3700538;-54
2024/02/27 00:50:08;;;;;;;;;134.00;116.00;;;;;6.98;100.00;99067.59;6301570;20;1953604;-53
2024/02/27 00:52:40;;;;;;;;;136.43;112.00;;;;;6.49;100.00;99072.13;6286568;20;2531583;-54
2024/02/27 00:55:10;;;;;;;;;135.50;120.00;;;;;6.71;100.00;99071.81;6271923;20;4494372;-51
2024/02/27 00:57:38;;;;;;;;;140.00;115.50;;;;;7.10;100.00;99074.03;6269688;20;1952449;-54
2024/02/27 01:00:12;;;;;;;;;129.25;107.50;;;;;6.94;100.00;99067.84;6275769;20;4467081;-52
2024/02/27 01:02:42;;;;;;;;;118.50;104.50;;;;;6.93;100.00;99076.81;6300646;20;1951616;-54
2024/02/27 01:05:12;;;;;;;;;123.00;108.50;;;;;6.98;100.00;99080.94;6273041;20;4462715;-54
2024/02/27 01:07:44;;;;;;;;;115.50;100.75;;;;;6.91;100.00;99073.38;6302231;20;4455451;-53
2024/02/27 01:10:15;;;;;;;;;124.25;106.75;;;;;7.02;100.00;99069.13;6275104;20;4477359;-52
2024/02/27 01:12:43;;;;;;;;;118.00;103.00;;;;;7.16;100.00;99067.47;6270439;20;1951484;-54
2024/02/27 01:15:13;;;;;;;;;125.00;106.00;;;;;7.36;100.00;99069.88;6273464;20;4480422;-54
2024/02/27 01:17:41;;;;;;;;;113.50;99.50;;;;;7.33;100.00;99075.38;6301419;20;1948217;-53
2024/02/27 01:20:11;;;;;;;;;99.67;91.67;;;;;7.26;100.00;99079.34;6274835;20;3665496;-54
2024/02/27 01:22:41;;;;;;;;;107.00;95.67;;;;;7.26;100.00;99077.53;6271382;20;3682671;-52
2024/02/27 01:25:12;;;;;;;;;86.33;76.33;;;;;7.44;100.00;99077.44;6271036;20;3650291;-54
2024/02/27 01:27:42;;;;;;;;;98.00;90.00;;;;;7.74;100.00;99074.78;6305257;20;3656582;-52
2024/02/27 01:30:13;;;;;;;;;110.50;95.00;;;;;7.69;100.00;99074.19;6271371;20;3701352;-52
2024/02/27 01:32:43;;;;;;;;;96.67;84.00;;;;;7.35;100.00;99077.97;6267893;20;3664825;-54
2024/02/27 01:35:17;;;;;;;;;106.25;86.25;;;;;7.08;100.00;99070.59;6268508;20;3703547;-53
2024/02/27 01:37:48;;;;;;;;;92.67;83.33;;;;;7.28;100.00;99068.59;6271760;20;3653422;-54
2024/02/27 01:40:17;;;;;;;;;96.67;81.00;;;;;7.23;100.00;99068.84;6271397;20;3674223;-54
2024/02/27 01:42:47;;;;;;;;;91.67;83.67;;;;;7.01;100.00;99066.56;6274747;20;3646360;-50
2024/02/27 01:45:21;;;;;;;;;95.33;82.00;;;;;6.95;100.00;99074.91;6304615;20;3670093;-54
2024/02/27 01:47:54;;;;;;;;;94.67;85.33;;;;;7.44;100.00;99072.09;6271594;20;3658570;-54
2024/02/27 01:50:25;;;;;;;;;93.25;85.25;;;;;7.58;100.00;99084.63;6307048;20;3652350;-55
2024/02/27 01:52:55;;;;;;;;;86.67;70.00;;;;;7.53;100.00;99087.59;6303992;20;3671041;-54
2024/02/27 01:55:24;;;;;;;;;91.67;84.00;;;;;7.70;100.00;99083.91;6268352;20;3653366;-55
2024/02/27 01:57:54;;;;;;;;;86.67;75.33;;;;;7.73;100.00;99088.22;6272752;20;3659699;-53
2024/02/27 02:00:24;;;;;;;;;87.67;79.33;;;;;7.75;100.00;99084.50;6270577;20;3651450;-55
2024/02/27 02:02:54;;;;;;;;;91.67;78.00;;;;;7.61;100.00;99088.00;6269566;20;3647156;-55
2024/02/27 02:05:24;;;;;;;;;86.33;77.33;;;;;7.66;100.00;99093.94;6269005;20;3647095;-55
2024/02/27 02:07:54;;;;;;;;;94.00;79.67;;;;;7.98;100.00;99088.47;6271726;20;3668966;-54
2024/02/27 02:10:24;;;;;;;;;88.00;75.00;;;;;8.00;100.00;99093.69;6272787;20;3672128;-54
2024/02/27 02:12:53;;;;;;;;;83.33;70.33;;;;;7.32;100.00;99087.03;6267416;20;3671081;-54
2024/02/27 02:15:24;;;;;;;;;91.00;81.00;;;;;7.30;100.00;99086.25;6268037;20;3667016;-53
2024/02/27 02:17:54;;;;;;;;;85.33;68.67;;;;;7.48;100.00;99095.00;6270925;20;3674246;-52
2024/02/27 02:20:23;;;;;;;;;75.00;59.00;;;;;7.63;100.00;99099.44;6271748;20;3626270;-54
2024/02/27 02:22:53;;;;;;;;;83.67;72.67;;;;;7.58;100.00;99096.19;6303829;20;3663877;-52
2024/02/27 02:25:30;;;;;;;;;85.33;71.33;;;;;7.46;100.00;99088.88;6267934;20;3673155;-53
2024/02/27 02:28:00;;;;;;;;;83.00;67.00;;;;;7.81;100.00;99091.28;6271256;20;3674266;-53
2024/02/27 02:30:29;;;;;;;;;80.00;58.67;;;;;7.99;100.00;99094.66;6269507;20;3648246;-55
2024/02/27 02:32:59;;;;;;;;;84.50;69.25;;;;;7.74;100.00;99093.47;6305628;20;4426302;-55
2024/02/27 02:35:28;;;;;;;;;86.00;67.00;;;;;8.10;100.00;99103.75;6304140;20;3675350;-54
2024/02/27 02:37:58;;;;;;;;;78.67;60.67;;;;;7.76;100.00;99104.06;6276648;20;3641947;-54
2024/02/27 02:40:28;;;;;;;;;82.33;69.33;;;;;7.84;100.00;99101.78;6309142;20;3655512;-54
2024/02/27 02:42:57;;;;;;;;;81.67;64.67;;;;;7.98;100.00;99106.28;6276689;20;3660824;-52
2024/02/27 02:45:27;;;;;;;;;81.33;66.67;;;;;7.88;100.00;99114.03;6276431;20;3650473;-52
2024/02/27 02:47:57;;;;;;;;;81.67;66.00;;;;;7.99;100.00;99132.09;6275435;20;3668000;-50
2024/02/27 02:50:30;;;;;;;;;82.33;65.33;;;;;7.90;100.00;99126.34;6273059;20;3662908;-51
2024/02/27 02:52:59;;;;;;;;;82.75;63.00;;;;;8.19;100.00;99133.53;6312442;20;3646194;-53
2024/02/27 02:55:29;;;;;;;;;58.67;45.00;;;;;8.30;100.00;99137.31;6304194;20;2874504;-50
2024/02/27 02:57:58;;;;;;;;;77.33;60.00;;;;;8.24;100.00;99144.81;6304769;20;3624265;-54
2024/02/27 03:00:28;;;;;;;;;81.00;63.33;;;;;8.05;100.00;99153.97;6305628;20;3655532;-50
2024/02/27 03:02:58;;;;;;;;;77.00;58.67;;;;;7.83;100.00;99142.84;6271118;20;3633745;-54
2024/02/27 03:05:27;;;;;;;;;78.67;59.33;;;;;8.06;100.00;99146.81;6303735;20;3637810;-52
2024/02/27 03:07:57;;;;;;;;;79.67;63.33;;;;;7.56;100.00;99151.53;6272869;20;3651400;-54
2024/02/27 03:10:27;;;;;;;;;76.00;62.00;;;;;7.51;100.00;99142.06;6306268;20;2864981;-54
2024/02/27 03:12:56;;;;;;;;;79.00;62.67;;;;;7.32;100.00;99144.88;6305620;20;3651044;-54
2024/02/27 03:15:26;;;;;;;;;83.67;64.67;;;;;7.68;100.00;99140.09;6270867;20;3672143;-55
2024/02/27 03:17:55;;;;;;;;;79.00;62.33;;;;;7.45;100.00;99140.56;6270665;20;3636744;-51
2024/02/27 03:20:25;;;;;;;;;79.67;61.33;;;;;7.74;100.00;99143.34;6306952;20;3642007;-54
2024/02/27 03:22:55;;;;;;;;;76.00;59.33;;;;;7.68;100.00;99145.44;6308398;20;3630457;-54
2024/02/27 03:25:24;;;;;;;;;71.00;57.33;;;;;7.75;100.00;99139.75;6306981;20;3601329;-54
2024/02/27 03:27:53;;;;;;;;;73.67;57.00;;;;;7.87;100.00;99139.91;6309467;20;3610874;-52
2024/02/27 03:30:21;;;;;;;;;70.00;53.00;;;;;7.68;100.00;99137.44;6271435;20;2461721;-55
2024/02/27 03:32:50;;;;;;;;;67.00;51.67;;;;;7.90;100.00;99146.88;6276509;20;3627337;-55
2024/02/27 03:35:21;;;;;;;;;64.67;51.67;;;;;7.93;100.00;99149.38;6306265;20;3625262;-51
2024/02/27 03:37:51;;;;;;;;;65.67;51.67;;;;;7.82;100.00;99143.75;6306521;20;3631637;-54
2024/02/27 03:40:21;;;;;;;;;59.33;49.00;;;;;7.79;100.00;99152.81;6308481;20;3600383;-54
2024/02/27 03:42:50;;;;;;;;;61.33;49.00;;;;;7.91;100.00;99146.75;6308778;20;3621121;-53
2024/02/27 03:45:20;;;;;;;;;60.00;49.33;;;;;7.96;100.00;99143.81;6304233;20;3603416;-53
2024/02/27 03:47:49;;;;;;;;;55.67;46.00;;;;;8.01;100.00;99140.88;6308785;20;2854699;-53
2024/02/27 03:50:19;;;;;;;;;52.67;39.67;;;;;7.82;100.00;99151.78;6309345;20;2873346;-53
2024/02/27 03:52:48;;;;;;;;;54.00;40.33;;;;;7.85;100.00;99152.47;6308344;20;2863920;-53
2024/02/27 03:55:18;;;;;;;;;51.33;43.33;;;;;7.76;100.00;99152.16;6307971;20;2851349;-53
2024/02/27 03:57:47;;;;;;;;;53.00;44.00;;;;;8.00;100.00;99149.84;6307723;20;2856554;-53
2024/02/27 04:00:17;;;;;;;;;54.33;44.00;;;;;8.04;100.00;99157.59;6277937;20;2863966;-52
2024/02/27 04:02:46;;;;;;;;;51.33;42.33;;;;;7.76;100.00;99153.00;6306107;20;3609746;-54
2024/02/27 04:05:16;;;;;;;;;52.67;43.00;;;;;7.83;100.00;99153.53;6305384;20;2856637;-54
2024/02/27 04:07:46;;;;;;;;;50.33;43.00;;;;;7.86;100.00;99154.19;6309544;20;2861720;-53
2024/02/27 04:10:14;;;;;;;;;55.00;44.50;;;;;8.09;100.00;99160.84;6307375;20;2859762;-53
2024/02/27 04:12:44;;;;;;;;;54.67;43.33;;;;;8.10;100.00;99157.22;6275689;20;3605511;-52
2024/02/27 04:15:13;;;;;;;;;50.33;40.00;;;;;7.99;100.00;99156.16;6305848;20;2847175;-52
2024/02/27 04:17:43;;;;;;;;;56.00;43.33;;;;;8.25;100.00;99159.94;6304736;20;3617985;-51
2024/02/27 04:20:13;;;;;;;;;57.33;44.67;;;;;8.18;100.00;99163.94;6306175;20;3622123;-52
2024/02/27 04:22:43;;;;;;;;;55.33;40.00;;;;;8.03;100.00;99160.34;6309106;20;2874366;-52
2024/02/27 04:25:11;;;;;;;;;50.50;40.50;;;;;8.18;100.00;99166.59;6306827;20;2855536;-52
2024/02/27 04:27:40;;;;;;;;;48.50;39.00;;;;;8.14;100.00;99161.44;6276112;20;2852454;-52
2024/02/27 04:30:10;;;;;;;;;50.00;42.50;;;;;8.30;100.00;99158.69;6277578;20;2851361;-53
2024/02/27 04:32:40;;;;;;;;;50.00;39.00;;;;;8.12;100.00;99157.13;6275780;20;2866144;-53
2024/02/27 04:35:09;;;;;;;;;49.33;38.33;;;;;8.06;100.00;99158.38;6307136;20;2865012;-50
2024/02/27 04:37:38;;;;;;;;;44.00;39.00;;;;;8.07;100.00;99157.41;6306019;20;2834637;-50
2024/02/27 04:40:09;;;;;;;;;45.50;40.00;;;;;8.01;100.00;99162.28;6278331;20;2852365;-53
2024/02/27 04:42:38;;;;;;;;;50.33;40.33;;;;;8.13;100.00;99169.53;6277568;20;2854491;-53
2024/02/27 04:45:08;;;;;;;;;51.00;39.33;;;;;8.12;100.00;99171.34;6306943;20;3608597;-53
2024/02/27 04:47:37;;;;;;;;;43.33;39.00;;;;;8.18;100.00;99174.63;6309587;20;3571170;-53
2024/02/27 04:50:06;;;;;;;;;50.67;41.67;;;;;8.21;100.00;99180.63;6312291;20;3605567;-53
2024/02/27 04:52:35;;;;;;;;;49.00;41.00;;;;;8.34;100.00;99175.41;6273503;20;2861743;-50
2024/02/27 04:55:04;;;;;;;;;45.00;39.00;;;;;8.25;100.00;99178.66;6273320;20;2855490;-53
2024/02/27 04:57:34;;;;;;;;;41.00;35.33;;;;;8.54;100.00;99180.44;6274446;20;2851391;-54
2024/02/27 05:00:04;;;;;;;;;45.00;35.67;;;;;8.24;100.00;99190.28;6313083;20;3626339;-51
2024/02/27 05:02:33;;;;;;;;;47.00;37.00;;;;;8.45;100.00;99182.81;6275552;20;3606483;-51
2024/02/27 05:05:03;;;;;;;;;44.67;38.00;;;;;8.47;100.00;99186.25;6273493;20;2859032;-53
2024/02/27 05:07:33;;;;;;;;;70.00;57.00;;;;;8.46;100.00;99185.41;6305820;20;2851421;-53
2024/02/27 05:10:03;;;;;;;;;73.33;57.33;;;;;8.39;100.00;99185.84;6306113;20;3613884;-53
2024/02/27 05:12:33;;;;;;;;;38.33;34.33;;;;;8.12;100.00;99190.06;6305264;20;2854526;-53
2024/02/27 05:15:02;;;;;;;;;48.67;38.67;;;;;8.03;100.00;99197.78;6307428;20;3601461;-53
2024/02/27 05:17:30;;;;;;;;;41.00;37.00;;;;;8.33;100.00;99200.44;6272276;20;2865930;-52
2024/02/27 05:19:59;;;;;;;;;47.50;38.50;;;;;8.08;100.00;99196.56;6277059;20;2847185;-53
2024/02/27 05:22:28;;;;;;;;;49.00;41.00;;;;;8.19;100.00;99201.28;6274276;20;2851466;-51
2024/02/27 05:24:56;;;;;;;;;56.00;45.00;;;;;8.07;100.00;99199.31;6269667;20;2500413;-52
2024/02/27 05:27:25;;;;;;;;;52.00;43.00;;;;;7.93;100.00;99197.47;6274231;20;2749363;-53
2024/02/27 05:29:55;;;;;;;;;54.33;42.33;;;;;7.96;100.00;99205.31;6307654;20;2859399;-54
2024/02/27 05:32:24;;;;;;;;;51.00;41.00;;;;;8.07;100.00;99210.88;6306403;20;2855248;-52
2024/02/27 05:34:53;;;;;;;;;52.00;42.00;;;;;8.41;100.00;99210.72;6272518;20;2851325;-53
2024/02/27 05:37:21;;;;;;;;;58.00;47.00;;;;;8.48;100.00;99223.63;6273711;20;2866972;-52
2024/02/27 05:39:51;;;;;;;;;58.00;47.00;;;;;8.43;100.00;99225.72;6272203;20;3621196;-51
2024/02/27 05:42:22;;;;;;;;;58.67;43.67;;;;;8.40;100.00;99239.28;6306954;20;2876481;-54
2024/02/27 05:44:52;;;;;;;;;56.33;45.33;;;;;8.55;100.00;99242.84;6303476;20;3613841;-52
2024/02/27 05:47:20;;;;;;;;;57.33;47.00;;;;;8.49;100.00;99243.22;6304762;20;2867185;-53
2024/02/27 05:49:50;;;;;;;;;63.67;50.00;;;;;8.51;100.00;99246.66;6305404;20;3627374;-52
2024/02/27 05:52:19;;;;;;;;;54.00;42.33;;;;;8.50;100.00;99245.78;6306253;20;2864975;-54
2024/02/27 05:54:49;;;;;;;;;56.67;46.00;;;;;8.44;100.00;99243.50;6303798;20;2864902;-54
2024/02/27 05:57:18;;;;;;;;;48.50;40.00;;;;;8.48;100.00;99246.88;6306375;20;2847173;-53
2024/02/27 05:59:47;;;;;;;;;51.67;41.00;;;;;8.62;100.00;99251.38;6273033;20;2879533;-53
2024/02/27 06:02:16;;;;;;;;;47.67;40.00;;;;;8.52;100.00;99251.91;6307407;20;3602568;-52
2024/02/27 06:04:45;;;;;;;;;41.00;36.50;;;;;8.68;100.00;99262.56;6271368;20;2855490;-54
2024/02/27 06:07:14;;;;;;;;;53.00;39.00;;;;;8.77;100.00;99263.84;6276284;20;3638789;-54
2024/02/27 06:09:43;;;;;;;;;32.33;30.00;;;;;8.73;100.00;99271.16;6314680;20;3593086;-52
2024/02/27 06:12:12;;;;;;;;;42.00;36.00;;;;;8.94;100.00;99265.47;6278509;20;2844092;-54
2024/02/27 06:14:41;;;;;;;;;44.00;36.50;;;;;8.75;100.00;99269.25;6280255;20;2859718;-51
2024/02/27 06:17:10;;;;;;;;;41.00;35.67;;;;;8.83;100.00;99268.78;6279810;20;3581538;-54
2024/02/27 06:19:44;;;;;;;;;41.00;36.00;;;;;8.98;100.00;99265.19;6277699;20;2858584;-54
2024/02/27 06:22:19;;;;;;;;;40.50;34.00;;;;;8.85;100.00;99274.94;6279156;20;2850286;-53
2024/02/27 06:24:49;;;;;;;;;45.00;37.00;;;;;9.04;100.00;99271.13;6279845;20;2844057;-54
2024/02/27 06:27:18;;;;;;;;;64.00;51.33;;;;;8.89;100.00;99273.75;6280044;20;3623160;-52
2024/02/27 06:29:49;;;;;;;;;99.00;90.00;;;;;9.05;100.00;99273.69;6311356;20;4450229;-55
2024/02/27 06:32:18;;;;;;;;;84.67;73.00;;;;;8.99;100.00;99277.59;6275481;20;3666949;-56
2024/02/27 06:34:47;;;;;;;;;114.50;107.50;;;;;9.11;100.00;99272.44;6273410;20;1944058;-53
2024/02/27 06:37:18;;;;;;;;;75.67;60.33;;;;;9.16;100.00;99283.72;6278854;20;3655536;-53
2024/02/27 06:39:48;;;;;;;;;74.33;61.33;;;;;9.24;100.00;99289.47;6275039;20;3637829;-55
2024/02/27 06:42:19;;;;;;;;;65.67;51.00;;;;;9.37;100.00;99295.81;6310450;20;3629441;-55
2024/02/27 06:44:49;;;;;;;;;43.67;36.67;;;;;9.27;100.00;99300.00;6305558;20;2852396;-54
2024/02/27 06:47:18;;;;;;;;;50.00;39.67;;;;;9.33;100.00;99299.63;6314906;20;3610696;-53
2024/02/27 06:49:47;;;;;;;;;49.33;37.00;;;;;9.54;100.00;99301.91;6279383;20;2864300;-51
2024/02/27 06:52:16;;;;;;;;;46.00;37.50;;;;;9.54;100.00;99304.59;6310398;20;2851372;-54
2024/02/27 06:54:45;;;;;;;;;36.33;33.33;;;;;9.66;100.00;99306.47;6280154;20;3601386;-54
2024/02/27 06:57:13;;;;;;;;;33.00;31.00;;;;;9.59;100.00;99311.38;6278363;20;2753368;-54
2024/02/27 06:59:43;;;;;;;;;40.00;35.00;;;;;9.82;100.00;99306.34;6307854;20;3605585;-54
2024/02/27 07:02:12;;;;;;;;;40.33;35.67;;;;;9.81;100.00;99308.16;6310290;20;2849278;-53
2024/02/27 07:04:40;;;;;;;;;155.00;118.50;;;;;9.63;100.00;99315.56;6301292;20;1948304;-52
2024/02/27 07:07:10;;;;;;;;;195.75;160.25;;;;;9.77;100.00;99317.38;6276760;20;4494875;-53
2024/02/27 07:09:38;;;;;;;;;115.50;90.00;;;;;9.78;100.00;99321.78;6272588;20;1940062;-52
2024/02/27 07:12:08;;;;;;;;;415.00;342.00;;;;;10.03;100.00;99322.84;6279280;20;4532656;-52
2024/02/27 07:14:42;;;;;;;;;102.00;97.67;;;;;10.04;100.00;99321.91;6276475;20;3665897;-50
2024/02/27 07:17:10;;;;;;;;;132.50;116.00;;;;;9.81;100.00;99321.56;6300446;20;1954565;-53
2024/02/27 07:19:45;;;;;;;;;372.71;317.71;;;;;10.02;100.00;99329.19;6283414;20;2544147;-52
2024/02/27 07:22:15;;;;;;;;;67.00;52.33;;;;;10.06;100.00;99325.38;6275086;20;3616907;-54
2024/02/27 07:24:44;;;;;;;;;82.50;78.25;;;;;9.96;100.00;99329.59;6311284;20;3663799;-52
2024/02/27 07:27:13;;;;;;;;;48.00;40.00;;;;;10.30;100.00;99329.16;6308498;20;2862808;-53
2024/02/27 07:29:43;;;;;;;;;39.67;35.33;;;;;10.16;100.00;99336.34;6278096;20;2871366;-54
2024/02/27 07:32:12;;;;;;;;;39.00;35.00;;;;;10.60;100.00;99343.31;6309593;20;2846160;-54
2024/02/27 07:34:42;;;;;;;;;70.67;54.00;;;;;10.45;100.00;99337.13;6281280;20;3630506;-53
2024/02/27 07:37:13;;;;;;;;;46.00;38.67;;;;;10.62;100.00;99333.31;6277297;20;2857636;-54
2024/02/27 07:39:45;;;;;;;;;68.33;52.00;;;;;10.56;100.00;99334.59;6307866;20;3632819;-54
2024/02/27 07:42:14;;;;;;;;;31.33;30.00;;;;;10.42;100.00;99342.69;6311280;20;3582594;-54
2024/02/27 07:44:43;;;;;;;;;47.00;39.00;;;;;10.33;100.00;99345.03;6307068;20;2842991;-55
2024/02/27 07:47:11;;;;;;;;;187.50;169.50;;;;;10.25;100.00;99344.66;6271329;20;1942010;-54
2024/02/27 07:49:45;;;;;;;;;54.00;43.67;;;;;10.43;100.00;99341.75;6276217;20;3636366;-54
2024/02/27 07:52:14;;;;;;;;;68.33;54.67;;;;;10.60;100.00;99343.31;6311963;20;3615216;-53
2024/02/27 07:54:43;;;;;;;;;49.00;40.50;;;;;10.90;100.00;99343.91;6276007;20;2851360;-54
2024/02/27 07:57:12;;;;;;;;;48.00;41.00;;;;;10.94;100.00;99350.78;6277331;20;2843129;-53
2024/02/27 07:59:42;;;;;;;;;65.33;53.67;;;;;11.14;100.00;99364.69;6278093;20;3611735;-55
2024/02/27 08:02:10;;;;;;;;;58.67;47.00;;;;;10.73;100.00;99350.41;6313460;20;3616954;-51
2024/02/27 08:04:40;;;;;;;;;111.50;103.25;;;;;11.07;100.00;99355.31;6277279;20;4446182;-54
2024/02/27 08:07:10;;;;;;;;;88.75;84.50;;;;;11.18;100.00;99358.97;6313071;20;3648653;-54
2024/02/27 08:09:39;;;;;;;;;75.50;64.00;;;;;11.74;100.00;99365.84;6312557;20;3643096;-54
2024/02/27 08:12:11;;;;;;;;;211.25;183.75;;;;;11.61;100.00;99365.84;6309704;20;4463316;-55
2024/02/27 08:14:39;;;;;;;;;43.00;36.50;;;;;11.97;100.00;99366.91;6274698;20;2839917;-55
2024/02/27 08:17:07;;;;;;;;;100.50;90.50;;;;;12.17;100.00;99370.84;6273584;20;1946306;-53
2024/02/27 08:19:39;;;;;;;;;49.67;40.67;;;;;11.36;100.00;99366.72;6281567;20;3614848;-55
2024/02/27 08:22:09;;;;;;;;;45.67;38.00;;;;;12.67;98.63;99366.22;6280467;20;2843071;-56
2024/02/27 08:24:38;;;;;;;;;71.00;51.75;;;;;11.97;97.55;99357.00;6312739;20;3631538;-54
2024/02/27 08:27:08;;;;;;;;;82.25;72.50;;;;;11.91;98.45;99362.84;6310643;20;4402322;-56
2024/02/27 08:29:37;;;;;;;;;42.00;37.00;;;;;12.43;97.98;99358.16;6310343;20;2842023;-52
2024/02/27 08:32:06;;;;;;;;;64.00;50.33;;;;;12.12;96.31;99364.94;6276403;20;3638790;-56
2024/02/27 08:34:36;;;;;;;;;68.25;51.75;;;;;12.98;93.28;99363.88;6311352;20;3638258;-56
2024/02/27 08:37:05;;;;;;;;;46.67;39.00;;;;;12.90;93.05;99359.97;6311082;20;3599340;-57
2024/02/27 08:39:34;;;;;;;;;55.33;45.67;;;;;13.56;87.91;99352.16;6282567;20;3608686;-56
2024/02/27 08:42:04;;;;;;;;;40.67;33.67;;;;;12.95;90.56;99354.19;6278669;20;3626329;-55
2024/02/27 08:44:33;;;;;;;;;51.67;43.00;;;;;14.15;87.72;99358.25;6312317;20;3605916;-55
2024/02/27 08:47:03;;;;;;;;;65.33;52.00;;;;;13.13;88.75;99351.91;6278205;20;3621197;-55
2024/02/27 08:49:32;;;;;;;;;61.33;48.33;;;;;12.79;89.53;99357.19;6314359;20;3618013;-55
2024/02/27 08:52:01;;;;;;;;;70.00;53.33;;;;;12.99;90.30;99362.91;6279011;20;3631527;-55
2024/02/27 08:54:33;;;;;;;;;52.75;43.00;;;;;13.76;89.22;99355.94;6305569;20;3614963;-55
2024/02/27 08:57:01;;;;;;;;;36.00;32.00;;;;;13.20;88.58;99363.09;6310802;20;3608612;-56
2024/02/27 08:59:31;;;;;;;;;53.67;44.33;;;;;13.58;87.29;99362.81;6277428;20;3621126;-54
2024/02/27 09:02:01;;;;;;;;;53.25;42.25;;;;;12.13;91.63;99366.66;6309366;20;3627839;-54
2024/02/27 09:04:32;;;;;;;;;49.00;40.33;;;;;12.74;92.83;99372.84;6313086;20;3589822;-53
2024/02/27 09:07:01;;;;;;;;;36.67;31.67;;;;;13.43;88.25;99375.69;6282549;20;3597211;-57
2024/02/27 09:09:31;;;;;;;;;37.67;34.00;;;;;12.57;90.28;99375.97;6276099;20;2851457;-57
2024/02/27 09:11:59;;;;;;;;;37.00;34.00;;;;;12.64;89.96;99375.41;6308123;20;2847201;-57
2024/02/27 09:14:29;;;;;;;;;37.00;31.00;;;;;12.49;91.52;99374.69;6277042;20;2854508;-56
2024/02/27 09:16:58;;;;;;;;;56.00;45.00;;;;;13.71;90.65;99368.94;6310388;20;3626282;-56
2024/02/27 09:19:27;;;;;;;;;66.67;51.00;;;;;14.06;85.66;99378.78;6311200;20;3626301;-55
2024/02/27 09:21:57;;;;;;;;;49.00;39.67;;;;;13.61;84.03;99367.94;6276773;20;2850328;-56
2024/02/27 09:24:27;;;;;;;;;68.75;52.50;;;;;13.57;88.47;99374.59;6311268;20;3635829;-57
2024/02/27 09:26:56;;;;;;;;;38.00;33.00;;;;;14.48;86.79;99381.59;6309156;20;3612741;-57
2024/02/27 09:29:25;;;;;;;;;40.50;33.50;;;;;14.54;85.07;99378.47;6277157;20;2845121;-58
2024/02/27 09:31:54;;;;;;;;;37.33;31.67;;;;;14.42;84.67;99379.44;6281954;20;3588874;-58
2024/02/27 09:34:22;;;;;;;;;40.00;33.50;;;;;13.93;82.83;99383.41;6275563;20;2858683;-57
2024/02/27 09:36:52;;;;;;;;;52.67;40.33;;;;;13.52;84.64;99380.34;6280157;20;3623296;-56
2024/02/27 09:39:21;;;;;;;;;45.33;36.33;;;;;14.24;82.92;99377.28;6278044;20;2848263;-58
2024/02/27 09:42:10;;;;;;;;;36.67;33.67;;;;;14.45;83.81;99376.47;6308857;20;3611802;-57
2024/02/27 09:44:46;;;;;;;;;46.00;36.67;;;;;14.76;80.88;99377.50;6283005;20;3594033;-57
2024/02/27 09:47:17;;;;;;;;;54.33;42.33;;;;;14.71;80.88;99377.88;6281501;20;3611710;-57
2024/02/27 09:49:48;;;;;;;;;33.67;32.00;;;;;15.09;81.33;99379.22;6314941;20;3589835;-58
2024/02/27 09:52:19;;;;;;;;;36.67;31.67;;;;;15.17;77.70;99380.41;6280888;20;2861855;-59
2024/02/27 09:54:50;;;;;;;;;73.25;54.00;;;;;14.73;80.47;99385.03;6316519;20;4395020;-59
2024/02/27 09:57:19;;;;;;;;;59.75;46.25;;;;;14.80;81.33;99384.38;6317125;20;4393955;-56
2024/02/27 09:59:48;;;;;;;;;39.00;33.00;;;;;14.60;78.87;99379.78;6314690;20;3611823;-55
2024/02/27 10:02:18;;;;;;;;;61.67;49.33;;;;;15.53;79.47;99389.88;6281657;20;3625372;-56
2024/02/27 10:04:47;;;;;;;;;35.33;32.67;;;;;15.35;78.23;99385.09;6312905;20;3606528;-52
2024/02/27 10:07:18;;;;;;;;;48.67;40.67;;;;;15.01;80.06;99379.00;6280792;20;3602427;-57
2024/02/27 10:09:48;;;;;;;;;48.00;36.00;;;;;14.20;79.82;99381.19;6280644;20;3602552;-56
2024/02/27 10:12:19;;;;;;;;;38.67;31.33;;;;;14.83;77.33;99384.13;6314975;20;3588936;-55
2024/02/27 10:14:48;;;;;;;;;36.67;33.33;;;;;14.93;78.71;99378.81;6284796;20;3599259;-54
2024/02/27 10:17:17;;;;;;;;;33.33;30.67;;;;;14.99;77.43;99372.03;6284242;20;3581498;-56
2024/02/27 10:19:46;;;;;;;;;30.67;30.00;;;;;14.89;77.24;99374.63;6282437;20;3591986;-55
2024/02/27 10:22:14;;;;;;;;;33.00;29.67;;;;;15.29;77.98;99384.75;6281792;20;3587815;-55
2024/02/27 10:24:43;;;;;;;;;33.33;32.00;;;;;15.44;77.16;99388.84;6284332;20;3590270;-53
2024/02/27 10:27:13;;;;;;;;;44.00;35.67;;;;;15.03;76.11;99379.72;6281993;20;2852528;-56
2024/02/27 10:29:41;;;;;;;;;40.67;32.00;;;;;15.59;74.28;99381.25;6316131;20;3608657;-55
2024/02/27 10:32:18;;;;;;;;;35.33;29.67;;;;;15.27;76.64;99382.19;6279717;20;3607689;-56
2024/02/27 10:34:46;;;;;;;;;29.33;25.67;;;;;15.77;73.31;99389.63;6316032;20;3582561;-56
2024/02/27 10:37:24;;;;;;;;;36.33;33.00;;;;;16.04;71.38;99388.19;6282797;20;3589987;-55
2024/02/27 10:39:56;;;;;;;;;37.67;31.67;;;;;16.28;72.40;99402.25;6280805;20;3598250;-55
2024/02/27 10:42:28;;;;;;;;;32.00;28.00;;;;;16.06;71.33;99402.44;6313838;20;3612801;-55
2024/02/27 10:45:00;;;;;;;;;58.63;46.63;;;;;16.39;72.24;99396.69;6303101;20;3626334;-57
2024/02/27 10:47:29;;;;;;;;;30.67;27.00;;;;;16.21;72.21;99399.22;6282215;20;3602349;-55
2024/02/27 10:49:58;;;;;;;;;53.00;41.67;;;;;15.53;75.55;99388.06;6284970;20;3625275;-56
2024/02/27 10:52:28;;;;;;;;;35.00;30.67;;;;;15.63;74.88;99390.81;6282654;20;3582294;-56
2024/02/27 10:54:59;;;;;;;;;59.00;44.67;;;;;14.65;77.60;99386.53;6274859;20;3628470;-55
2024/02/27 10:57:29;;;;;;;;;40.67;33.67;;;;;15.50;76.84;99382.03;6311921;20;3585754;-55
2024/02/27 10:59:59;;;;;;;;;51.00;37.33;;;;;15.75;76.82;99378.94;6282316;20;3606494;-56
2024/02/27 11:02:30;;;;;;;;;34.50;30.00;;;;;15.75;72.91;99378.09;6278994;20;3553382;-56
2024/02/27 11:05:04;;;;;;;;;32.50;30.63;;;;;15.87;74.20;99376.97;6298861;20;3572149;-55
2024/02/27 11:07:34;;;;;;;;;31.33;27.00;;;;;16.02;72.27;99386.47;6279663;20;3597192;-55
2024/02/27 11:10:04;;;;;;;;;36.33;30.33;;;;;15.54;72.87;99383.50;6281772;20;3592999;-56